createdAt,value
2023-11-23T00:00:16.631Z,100.00
2023-11-23T00:02:46.292Z,100.00
2023-11-23T00:05:14.151Z,99.32
2023-11-23T00:07:42.096Z,99.88
2023-11-23T00:10:11.729Z,97.97
2023-11-23T00:12:42.191Z,98.52
2023-11-23T00:15:11.154Z,100.00
2023-11-23T00:17:39.126Z,100.00
2023-11-23T00:20:10.487Z,100.00
2023-11-23T00:22:39.044Z,100.00
2023-11-23T00:25:13.141Z,100.00
2023-11-23T00:27:41.157Z,100.00
2023-11-23T00:30:09.967Z,100.00
2023-11-23T00:32:37.931Z,100.00
2023-11-23T00:35:07.576Z,100.00
2023-11-23T00:37:36.698Z,100.00
2023-11-23T00:40:07.147Z,100.00
2023-11-23T00:42:34.907Z,100.00
2023-11-23T00:45:02.779Z,100.00
2023-11-23T00:47:30.594Z,97.99
2023-11-23T00:49:58.702Z,96.34
2023-11-23T00:52:27.326Z,94.53
2023-11-23T00:54:58.283Z,93.43
2023-11-23T00:57:26.098Z,93.28
2023-11-23T00:59:53.908Z,96.63
2023-11-23T01:02:22.424Z,100.00
2023-11-23T01:04:51.628Z,100.00
2023-11-23T01:07:19.391Z,100.00
2023-11-23T01:09:47.138Z,100.00
2023-11-23T01:12:16.267Z,100.00
2023-11-23T01:14:44.287Z,100.00
2023-11-23T01:17:12.314Z,100.00
2023-11-23T01:19:40.272Z,100.00
2023-11-23T01:22:08.107Z,100.00
2023-11-23T01:24:36.863Z,100.00
2023-11-23T01:27:05.022Z,100.00
2023-11-23T01:29:34.320Z,100.00
2023-11-23T01:32:02.121Z,100.00
2023-11-23T01:34:29.929Z,100.00
2023-11-23T01:36:57.762Z,100.00
2023-11-23T01:39:26.662Z,100.00
2023-11-23T01:41:55.003Z,100.00
2023-11-23T01:44:23.339Z,100.00
2023-11-23T01:46:54.176Z,100.00
2023-11-23T01:49:23.438Z,100.00
2023-11-23T01:51:51.725Z,100.00
2023-11-23T01:54:20.337Z,100.00
2023-11-23T01:56:51.793Z,100.00
2023-11-23T01:59:19.693Z,100.00
2023-11-23T02:01:47.532Z,100.00
2023-11-23T02:04:17.230Z,100.00
2023-11-23T02:06:45.004Z,100.00
2023-11-23T02:09:13.772Z,100.00
2023-11-23T02:11:41.696Z,100.00
2023-11-23T02:14:09.939Z,100.00
2023-11-23T02:16:38.872Z,100.00
2023-11-23T02:19:07.244Z,100.00
2023-11-23T02:21:36.597Z,100.00
2023-11-23T02:24:09.419Z,100.00
2023-11-23T02:26:37.246Z,100.00
2023-11-23T02:29:06.409Z,100.00
2023-11-23T02:31:35.018Z,100.00
2023-11-23T02:34:03.873Z,100.00
2023-11-23T02:36:31.745Z,100.00
2023-11-23T02:38:59.560Z,100.00
2023-11-23T02:41:28.637Z,100.00
2023-11-23T02:43:56.567Z,100.00
2023-11-23T02:46:25.981Z,100.00
2023-11-23T02:48:53.840Z,100.00
2023-11-23T02:51:21.613Z,100.00
2023-11-23T02:53:49.608Z,100.00
2023-11-23T02:56:17.972Z,100.00
2023-11-23T02:58:47.853Z,100.00
2023-11-23T03:01:15.929Z,100.00
2023-11-23T03:03:44.114Z,100.00
2023-11-23T03:06:14.726Z,100.00
2023-11-23T03:08:42.646Z,100.00
2023-11-23T03:11:20.593Z,100.00
2023-11-23T03:13:50.511Z,100.00
2023-11-23T03:16:18.653Z,100.00
2023-11-23T03:18:49.046Z,100.00
2023-11-23T03:21:17.092Z,100.00
2023-11-23T03:23:46.759Z,100.00
2023-11-23T03:26:14.660Z,100.00
2023-11-23T03:28:42.367Z,100.00
2023-11-23T03:31:11.805Z,100.00
2023-11-23T03:33:39.900Z,100.00
2023-11-23T03:36:08.463Z,100.00
2023-11-23T03:38:36.215Z,100.00
2023-11-23T03:41:05.261Z,100.00
2023-11-23T03:43:33.038Z,100.00
2023-11-23T03:46:00.870Z,100.00
2023-11-23T03:48:30.134Z,100.00
2023-11-23T03:50:58.116Z,100.00
2023-11-23T03:53:25.946Z,100.00
2023-11-23T03:55:53.737Z,100.00
2023-11-23T03:58:23.785Z,100.00
2023-11-23T04:00:51.619Z,100.00
2023-11-23T04:03:19.589Z,100.00
2023-11-23T04:05:49.030Z,100.00
2023-11-23T04:08:17.278Z,100.00
2023-11-23T04:10:45.163Z,100.00
2023-11-23T04:13:14.438Z,100.00
2023-11-23T04:15:42.198Z,100.00
2023-11-23T04:18:10.079Z,100.00
2023-11-23T04:20:37.826Z,100.00
2023-11-23T04:23:08.965Z,100.00
2023-11-23T04:25:36.716Z,100.00
2023-11-23T04:28:04.630Z,100.00
2023-11-23T04:30:32.501Z,100.00
2023-11-23T04:33:00.529Z,100.00
2023-11-23T04:35:29.005Z,100.00
2023-11-23T04:37:57.186Z,100.00
2023-11-23T04:40:26.533Z,100.00
2023-11-23T04:42:54.284Z,100.00
2023-11-23T04:45:22.252Z,100.00
2023-11-23T04:47:50.008Z,100.00
2023-11-23T04:50:20.745Z,100.00
2023-11-23T04:52:49.932Z,100.00
2023-11-23T04:55:17.850Z,100.00
2023-11-23T04:57:47.202Z,100.00
2023-11-23T05:00:16.165Z,100.00
2023-11-23T05:02:45.043Z,100.00
2023-11-23T05:05:13.397Z,100.00
2023-11-23T05:07:41.680Z,100.00
2023-11-23T05:10:10.508Z,100.00
2023-11-23T05:12:38.784Z,100.00
2023-11-23T05:15:09.402Z,100.00
2023-11-23T05:17:37.256Z,100.00
2023-11-23T05:20:07.526Z,100.00
2023-11-23T05:22:35.290Z,100.00
2023-11-23T05:25:03.631Z,100.00
2023-11-23T05:27:31.577Z,100.00
2023-11-23T05:29:59.397Z,100.00
2023-11-23T05:32:28.590Z,100.00
2023-11-23T05:34:56.348Z,100.00
2023-11-23T05:37:24.143Z,100.00
2023-11-23T05:39:51.962Z,100.00
2023-11-23T05:42:19.733Z,100.00
2023-11-23T05:44:47.536Z,100.00
2023-11-23T05:47:15.578Z,100.00
2023-11-23T05:49:44.853Z,100.00
2023-11-23T05:52:12.823Z,100.00
2023-11-23T05:54:40.789Z,100.00
2023-11-23T05:57:09.077Z,100.00
2023-11-23T05:59:37.802Z,100.00
2023-11-23T06:02:07.055Z,100.00
2023-11-23T06:04:34.913Z,100.00
2023-11-23T06:07:04.906Z,100.00
2023-11-23T06:09:32.629Z,100.00
2023-11-23T06:12:00.343Z,100.00
2023-11-23T06:14:28.189Z,100.00
2023-11-23T06:16:55.933Z,100.00
2023-11-23T06:19:23.717Z,100.00
2023-11-23T06:21:52.245Z,100.00
2023-11-23T06:24:21.754Z,100.00
2023-11-23T06:26:52.025Z,100.00
2023-11-23T06:29:20.307Z,100.00
2023-11-23T06:31:48.095Z,100.00
2023-11-23T06:34:15.107Z,100.00
2023-11-23T06:36:47.705Z,100.00
2023-11-23T06:39:24.903Z,100.00
2023-11-23T06:41:55.473Z,100.00
2023-11-23T06:44:24.027Z,100.00
2023-11-23T06:46:51.824Z,100.00
2023-11-23T06:49:19.702Z,100.00
2023-11-23T06:51:47.972Z,100.00
2023-11-23T06:54:15.946Z,100.00
2023-11-23T06:56:43.816Z,100.00
2023-11-23T06:59:13.645Z,100.00
2023-11-23T07:01:41.478Z,100.00
2023-11-23T07:04:10.804Z,100.00
2023-11-23T07:06:39.874Z,100.00
2023-11-23T07:09:11.643Z,100.00
2023-11-23T07:11:39.951Z,100.00
2023-11-23T07:14:08.349Z,100.00
2023-11-23T07:16:38.614Z,100.00
2023-11-23T07:19:06.594Z,100.00
2023-11-23T07:21:34.455Z,100.00
2023-11-23T07:24:02.252Z,100.00
2023-11-23T07:26:32.143Z,100.00
2023-11-23T07:28:59.879Z,100.00
2023-11-23T07:31:28.053Z,100.00
2023-11-23T07:33:57.304Z,100.00
2023-11-23T07:36:27.530Z,100.00
2023-11-23T07:38:55.837Z,100.00
2023-11-23T07:41:23.673Z,100.00
2023-11-23T07:43:51.832Z,100.00
2023-11-23T07:46:20.862Z,100.00
2023-11-23T07:48:55.707Z,100.00
2023-11-23T07:51:26.140Z,100.00
2023-11-23T07:53:53.898Z,100.00
2023-11-23T07:56:22.302Z,100.00
2023-11-23T07:58:52.830Z,100.00
2023-11-23T08:01:20.776Z,100.00
2023-11-23T08:03:48.896Z,100.00
2023-11-23T08:06:17.670Z,100.00
2023-11-23T08:08:48.697Z,100.00
2023-11-23T08:11:16.730Z,100.00
2023-11-23T08:13:44.510Z,100.00
2023-11-23T08:16:13.578Z,100.00
2023-11-23T08:18:47.337Z,100.00
2023-11-23T08:21:18.235Z,100.00
2023-11-23T08:23:47.413Z,100.00
2023-11-23T08:26:17.091Z,100.00
2023-11-23T08:28:44.857Z,100.00
2023-11-23T08:31:13.107Z,100.00
2023-11-23T08:33:40.999Z,100.00
2023-11-23T08:36:09.448Z,100.00
2023-11-23T08:38:38.386Z,100.00
2023-11-23T08:41:07.904Z,100.00
2023-11-23T08:43:38.504Z,100.00
2023-11-23T08:46:08.311Z,100.00
2023-11-23T08:48:36.238Z,98.78
2023-11-23T08:51:05.144Z,97.80
2023-11-23T08:53:33.079Z,97.70
2023-11-23T08:56:00.840Z,97.16
2023-11-23T08:58:29.970Z,96.73
2023-11-23T09:00:57.807Z,97.20
2023-11-23T09:03:25.683Z,99.40
2023-11-23T09:05:53.621Z,99.72
2023-11-23T09:08:21.654Z,99.92
2023-11-23T09:10:49.826Z,99.77
2023-11-23T09:13:18.669Z,100.00
2023-11-23T09:15:49.806Z,98.67
2023-11-23T09:18:17.667Z,98.77
2023-11-23T09:20:46.481Z,97.88
2023-11-23T09:23:14.228Z,97.00
2023-11-23T09:25:41.939Z,97.35
2023-11-23T09:28:10.458Z,96.27
2023-11-23T09:30:38.448Z,96.82
2023-11-23T09:33:10.510Z,98.17
2023-11-23T09:35:39.643Z,100.00
2023-11-23T09:38:07.784Z,100.00
2023-11-23T09:40:35.868Z,100.00
2023-11-23T09:43:03.995Z,100.00
2023-11-23T09:45:32.025Z,100.00
2023-11-23T09:48:01.854Z,100.00
2023-11-23T09:50:35.637Z,100.00
2023-11-23T09:53:09.099Z,100.00
2023-11-23T09:55:37.005Z,100.00
2023-11-23T09:58:06.087Z,100.00
2023-11-23T10:00:36.955Z,100.00
2023-11-23T10:03:09.581Z,100.00
2023-11-23T10:05:39.990Z,99.72
2023-11-23T10:08:07.801Z,99.30
2023-11-23T10:10:40.181Z,98.82
2023-11-23T10:13:10.235Z,99.34
2023-11-23T10:15:38.457Z,99.36
2023-11-23T10:18:06.424Z,99.69
2023-11-23T10:20:38.055Z,99.20
2023-11-23T10:23:10.656Z,98.96
2023-11-23T10:25:38.571Z,99.17
2023-11-23T10:28:06.750Z,98.82
2023-11-23T10:30:34.864Z,98.75
2023-11-23T10:33:03.073Z,98.92
2023-11-23T10:35:36.929Z,99.20
2023-11-23T10:38:05.020Z,99.12
2023-11-23T10:40:34.520Z,99.47
2023-11-23T10:43:03.674Z,99.27
2023-11-23T10:45:35.526Z,99.28
2023-11-23T10:48:05.422Z,99.62
2023-11-23T10:50:34.777Z,99.89
2023-11-23T10:53:04.194Z,98.91
2023-11-23T10:55:32.173Z,99.66
2023-11-23T10:58:06.543Z,99.96
2023-11-23T11:00:35.253Z,99.41
2023-11-23T11:03:05.984Z,99.45
2023-11-23T11:05:39.295Z,99.58
2023-11-23T11:08:08.858Z,99.17
2023-11-23T11:10:51.297Z,99.18
2023-11-23T11:13:22.657Z,99.10
2023-11-23T11:15:53.146Z,99.34
2023-11-23T11:18:25.871Z,98.94
2023-11-23T11:21:09.424Z,98.88
2023-11-23T11:23:41.535Z,98.56
2023-11-23T11:26:13.550Z,98.57
2023-11-23T11:28:43.444Z,98.65
2023-11-23T11:31:14.785Z,98.59
2023-11-23T11:33:43.091Z,98.74
2023-11-23T11:36:13.963Z,98.68
2023-11-23T11:38:42.028Z,98.61
2023-11-23T11:41:11.353Z,98.43
2023-11-23T11:43:39.104Z,97.71
2023-11-23T11:46:08.479Z,98.10
2023-11-23T11:48:36.474Z,99.05
2023-11-23T11:51:06.462Z,99.18
2023-11-23T11:53:34.426Z,100.00
2023-11-23T11:56:02.903Z,100.00
2023-11-23T11:58:31.014Z,100.00
2023-11-23T12:00:58.934Z,100.00
2023-11-23T12:03:28.407Z,99.97
2023-11-23T12:05:56.608Z,100.00
2023-11-23T12:08:26.220Z,100.00
2023-11-23T12:10:54.406Z,100.00
2023-11-23T12:13:26.218Z,100.00
2023-11-23T12:15:55.058Z,100.00
2023-11-23T12:18:33.998Z,100.00
2023-11-23T12:21:01.819Z,100.00
2023-11-23T12:23:30.510Z,100.00
2023-11-23T12:25:58.626Z,100.00
2023-11-23T12:28:27.323Z,100.00
2023-11-23T12:30:55.164Z,100.00
2023-11-23T12:33:23.063Z,100.00
2023-11-23T12:35:52.285Z,100.00
2023-11-23T12:38:20.068Z,100.00
2023-11-23T12:40:47.870Z,100.00
2023-11-23T12:43:16.083Z,100.00
2023-11-23T12:45:44.947Z,100.00
2023-11-23T12:48:12.915Z,100.00
2023-11-23T12:50:40.924Z,100.00
2023-11-23T12:53:11.269Z,100.00
2023-11-23T12:55:39.042Z,100.00
2023-11-23T12:58:07.127Z,100.00
2023-11-23T13:00:37.536Z,100.00
2023-11-23T13:03:07.031Z,100.00
2023-11-23T13:05:35.162Z,100.00
2023-11-23T13:08:03.482Z,100.00
2023-11-23T13:10:32.846Z,100.00
2023-11-23T13:13:01.458Z,100.00
2023-11-23T13:15:31.300Z,100.00
2023-11-23T13:18:00.871Z,100.00
2023-11-23T13:20:29.311Z,100.00
2023-11-23T13:22:57.120Z,100.00
2023-11-23T13:25:25.001Z,100.00
2023-11-23T13:27:57.458Z,100.00
2023-11-23T13:30:28.521Z,100.00
2023-11-23T13:32:58.174Z,100.00
2023-11-23T13:35:28.115Z,100.00
2023-11-23T13:37:56.044Z,100.00
2023-11-23T13:40:24.318Z,100.00
2023-11-23T13:42:53.718Z,100.00
2023-11-23T13:45:24.068Z,100.00
2023-11-23T13:47:52.477Z,100.00
2023-11-23T13:50:20.205Z,100.00
2023-11-23T13:52:48.125Z,100.00
2023-11-23T13:55:16.389Z,100.00
2023-11-23T13:57:44.370Z,100.00
2023-11-23T14:00:20.471Z,100.00
2023-11-23T14:02:49.730Z,100.00
2023-11-23T14:05:17.760Z,100.00
2023-11-23T14:07:45.599Z,100.00
2023-11-23T14:10:14.893Z,100.00
2023-11-23T14:12:43.123Z,100.00
2023-11-23T14:15:12.368Z,100.00
2023-11-23T14:17:41.190Z,100.00
2023-11-23T14:20:13.545Z,100.00
2023-11-23T14:22:41.353Z,100.00
2023-11-23T14:25:10.503Z,100.00
2023-11-23T14:27:39.038Z,100.00
2023-11-23T14:30:08.832Z,100.00
2023-11-23T14:32:36.772Z,100.00
2023-11-23T14:35:06.142Z,100.00
2023-11-23T14:37:36.213Z,100.00
2023-11-23T14:40:14.122Z,100.00
2023-11-23T14:42:48.676Z,100.00
2023-11-23T14:45:24.892Z,100.00
2023-11-23T14:47:53.610Z,100.00
2023-11-23T14:50:22.309Z,100.00
2023-11-23T14:52:51.602Z,100.00
2023-11-23T14:55:19.812Z,100.00
2023-11-23T14:57:47.846Z,100.00
2023-11-23T15:00:17.920Z,100.00
2023-11-23T15:02:46.790Z,100.00
2023-11-23T15:05:16.449Z,100.00
2023-11-23T15:07:44.440Z,100.00
2023-11-23T15:10:14.060Z,100.00
2023-11-23T15:12:44.752Z,100.00
2023-11-23T15:15:14.014Z,100.00
2023-11-23T15:17:42.219Z,100.00
2023-11-23T15:20:11.536Z,100.00
2023-11-23T15:22:39.449Z,100.00
2023-11-23T15:25:11.560Z,100.00
2023-11-23T15:27:43.843Z,100.00
2023-11-23T15:30:13.023Z,100.00
2023-11-23T15:32:43.753Z,100.00
2023-11-23T15:35:14.107Z,100.00
2023-11-23T15:37:42.382Z,100.00
2023-11-23T15:40:11.409Z,100.00
2023-11-23T15:42:40.789Z,100.00
2023-11-23T15:45:09.782Z,100.00
2023-11-23T15:47:37.975Z,100.00
2023-11-23T15:50:08.705Z,100.00
2023-11-23T15:52:37.233Z,100.00
2023-11-23T15:55:07.779Z,100.00
2023-11-23T16:09:23.412Z,100.00
2023-11-23T16:11:51.284Z,100.00
2023-11-23T16:14:19.274Z,100.00
2023-11-23T16:16:48.964Z,100.00
2023-11-23T16:19:17.182Z,100.00
2023-11-23T16:21:45.044Z,100.00
2023-11-23T16:24:12.886Z,100.00
2023-11-23T16:26:41.292Z,100.00
2023-11-23T16:29:11.961Z,100.00
2023-11-23T16:31:43.509Z,100.00
2023-11-23T16:34:15.991Z,100.00
2023-11-23T16:36:46.185Z,100.00
2023-11-23T16:39:16.944Z,100.00
2023-11-23T16:41:45.577Z,100.00
2023-11-23T16:44:15.891Z,100.00
2023-11-23T16:46:44.077Z,100.00
2023-11-23T16:49:13.989Z,100.00
2023-11-23T16:51:41.977Z,100.00
2023-11-23T16:54:10.346Z,100.00
2023-11-23T16:56:38.415Z,100.00
2023-11-23T16:59:10.118Z,100.00
2023-11-23T17:01:40.169Z,100.00
2023-11-23T17:04:08.746Z,100.00
2023-11-23T17:06:40.487Z,100.00
2023-11-23T17:09:08.617Z,100.00
2023-11-23T17:11:36.545Z,100.00
2023-11-23T17:14:04.508Z,100.00
2023-11-23T17:16:33.246Z,100.00
2023-11-23T17:19:01.330Z,100.00
2023-11-23T17:21:29.312Z,100.00
2023-11-23T17:23:58.775Z,100.00
2023-11-23T17:26:26.628Z,100.00
2023-11-23T17:28:56.704Z,100.00
2023-11-23T17:31:24.519Z,100.00
2023-11-23T17:33:52.513Z,100.00
2023-11-23T17:36:20.779Z,100.00
2023-11-23T17:38:48.910Z,100.00
2023-11-23T17:41:18.168Z,100.00
2023-11-23T17:43:47.655Z,100.00
2023-11-23T17:46:15.729Z,100.00
2023-11-23T17:48:43.641Z,100.00
2023-11-23T17:51:14.404Z,100.00
2023-11-23T17:53:44.049Z,100.00
2023-11-23T17:56:12.083Z,100.00
2023-11-23T17:58:41.504Z,100.00
2023-11-23T18:01:09.741Z,100.00
2023-11-23T18:03:37.761Z,100.00
2023-11-23T18:06:06.687Z,100.00
2023-11-23T18:08:35.196Z,100.00
2023-11-23T18:11:03.165Z,100.00
2023-11-23T18:13:31.150Z,100.00
2023-11-23T18:16:00.432Z,100.00
2023-11-23T18:18:28.372Z,100.00
2023-11-23T18:20:58.010Z,100.00
2023-11-23T18:23:28.157Z,100.00
2023-11-23T18:25:56.801Z,100.00
2023-11-23T18:28:25.313Z,100.00
2023-11-23T18:30:54.641Z,100.00
2023-11-23T18:33:24.409Z,100.00
2023-11-23T18:35:52.328Z,100.00
2023-11-23T18:38:20.213Z,100.00
2023-11-23T18:40:48.831Z,100.00
2023-11-23T18:43:16.765Z,100.00
2023-11-23T18:45:44.820Z,100.00
2023-11-23T18:48:12.809Z,100.00
2023-11-23T18:50:42.072Z,100.00
2023-11-23T18:53:09.931Z,100.00
2023-11-23T18:55:37.976Z,100.00
2023-11-23T18:58:06.436Z,100.00
2023-11-23T19:00:35.032Z,100.00
2023-11-23T19:03:03.219Z,100.00
2023-11-23T19:05:31.340Z,100.00
2023-11-23T19:08:00.742Z,100.00
2023-11-23T19:10:28.563Z,100.00
2023-11-23T19:13:03.826Z,100.00
2023-11-23T19:15:34.544Z,100.00
2023-11-23T19:18:04.415Z,100.00
2023-11-23T19:20:35.264Z,100.00
2023-11-23T19:23:06.232Z,100.00
2023-11-23T19:25:35.353Z,100.00
2023-11-23T19:28:06.026Z,100.00
2023-11-23T19:33:29.258Z,100.00
2023-11-23T19:35:58.104Z,100.00
2023-11-23T19:38:28.199Z,100.00
2023-11-23T19:41:01.127Z,100.00
2023-11-23T19:43:30.296Z,100.00
2023-11-23T19:45:59.150Z,100.00
2023-11-23T19:48:29.111Z,100.00
2023-11-23T19:50:57.789Z,100.00
2023-11-23T19:53:30.827Z,100.00
2023-11-23T19:55:59.184Z,100.00
2023-11-23T19:58:28.362Z,100.00
2023-11-23T20:00:56.322Z,100.00
2023-11-23T20:03:24.127Z,100.00
2023-11-23T20:05:51.990Z,100.00
2023-11-23T20:08:19.843Z,100.00
2023-11-23T20:10:50.456Z,100.00
2023-11-23T20:13:19.926Z,100.00
2023-11-23T20:15:47.881Z,100.00
2023-11-23T20:18:15.942Z,100.00
2023-11-23T20:20:43.978Z,100.00
2023-11-23T20:23:13.591Z,100.00
2023-11-23T20:25:41.320Z,100.00
2023-11-23T20:28:13.468Z,100.00
2023-11-23T20:30:41.411Z,100.00
2023-11-23T20:33:09.584Z,100.00
2023-11-23T20:35:39.289Z,100.00
2023-11-23T20:38:07.363Z,100.00
2023-11-23T20:40:35.330Z,100.00
2023-11-23T20:43:03.215Z,100.00
2023-11-23T20:45:32.342Z,100.00
2023-11-23T20:48:00.412Z,100.00
2023-11-23T20:50:28.925Z,100.00
2023-11-23T20:52:56.868Z,100.00
2023-11-23T20:55:25.924Z,100.00
2023-11-23T20:57:54.277Z,100.00
2023-11-23T21:00:24.078Z,100.00
2023-11-23T21:02:54.089Z,100.00
2023-11-23T21:05:23.745Z,100.00
2023-11-23T21:07:53.094Z,100.00
2023-11-23T21:10:21.628Z,100.00
2023-11-23T21:12:49.570Z,100.00
2023-11-23T21:15:18.370Z,100.00
2023-11-23T21:17:46.351Z,100.00
2023-11-23T21:20:15.692Z,100.00
2023-11-23T21:22:43.763Z,100.00
2023-11-23T21:25:11.680Z,100.00
2023-11-23T21:27:39.579Z,100.00
2023-11-23T21:30:09.329Z,100.00
2023-11-23T21:32:38.038Z,100.00
2023-11-23T21:35:09.014Z,100.00
2023-11-23T21:37:38.438Z,100.00
2023-11-23T21:40:07.491Z,100.00
2023-11-23T21:42:35.344Z,100.00
2023-11-23T21:45:03.240Z,100.00
2023-11-23T21:47:31.061Z,100.00
2023-11-23T21:49:58.895Z,100.00
2023-11-23T21:52:26.769Z,100.00
2023-11-23T21:55:03.459Z,100.00
2023-11-23T21:57:32.269Z,100.00
2023-11-23T22:00:00.142Z,100.00
2023-11-23T22:02:28.344Z,100.00
2023-11-23T22:04:56.381Z,100.00
2023-11-23T22:07:25.483Z,100.00
2023-11-23T22:09:53.360Z,100.00
2023-11-23T22:12:23.280Z,100.00
2023-11-23T22:14:52.255Z,100.00
2023-11-23T22:17:20.650Z,100.00
2023-11-23T22:19:49.087Z,100.00
2023-11-23T22:22:17.617Z,100.00
2023-11-23T22:24:45.747Z,100.00
2023-11-23T22:27:14.046Z,100.00
2023-11-23T22:29:43.832Z,100.00
2023-11-23T22:32:11.780Z,100.00
2023-11-23T22:34:40.389Z,100.00
2023-11-23T22:37:08.946Z,100.00
2023-11-23T22:39:37.336Z,100.00
2023-11-23T22:42:05.928Z,100.00
2023-11-23T22:44:34.155Z,100.00
2023-11-23T22:47:07.313Z,100.00
2023-11-23T22:49:35.673Z,100.00
2023-11-23T22:52:05.255Z,100.00
2023-11-23T22:54:34.983Z,100.00
2023-11-23T22:57:04.436Z,100.00
2023-11-23T22:59:32.392Z,100.00
2023-11-23T23:02:00.712Z,100.00
2023-11-23T23:04:32.416Z,100.00
2023-11-23T23:07:00.336Z,100.00
2023-11-23T23:09:28.884Z,100.00
2023-11-23T23:11:57.827Z,100.00
2023-11-23T23:14:26.458Z,100.00
2023-11-23T23:16:54.317Z,100.00
2023-11-23T23:19:22.565Z,100.00
2023-11-23T23:21:55.564Z,100.00
2023-11-23T23:24:23.457Z,100.00
2023-11-23T23:26:51.522Z,100.00
2023-11-23T23:29:20.904Z,100.00
2023-11-23T23:31:48.737Z,100.00
2023-11-23T23:34:16.656Z,100.00
2023-11-23T23:36:44.456Z,100.00
2023-11-23T23:39:13.562Z,100.00
2023-11-23T23:41:41.705Z,100.00
2023-11-23T23:44:09.417Z,100.00
2023-11-23T23:46:37.225Z,100.00
2023-11-23T23:49:05.726Z,100.00
2023-11-23T23:51:33.634Z,100.00
2023-11-23T23:54:01.566Z,100.00
2023-11-23T23:56:30.740Z,100.00
2023-11-23T23:58:58.516Z,100.00
